Time;durP1;ratioP1;P1;durP2;ratioP2;P2;SDS_P1;SDS_P2;PMS_P1;PMS_P2;Temp;Humidity;BMP_temperature;BMP_pressure;BME280_temperature;BME280_humidity;BME280_pressure;Samples;Min_cycle;Max_cycle;Signal;HPM_P1;HPM_P2
2023/01/13 00:09:58;;;;;;;0.20;0.00;;;11.00;99.90;;;;;;21156928;28;20410;-70
2023/01/13 00:20:05;;;;;;;0.20;0.00;;;11.40;99.90;;;;;;21154823;28;20405;-70
2023/01/13 00:30:09;;;;;;;0.20;0.10;;;11.40;99.90;;;;;;21155587;28;20786;-70
2023/01/13 00:40:15;;;;;;;0.20;0.10;;;11.30;99.90;;;;;;21081282;28;20434;-68
2023/01/13 00:50:18;;;;;;;0.20;0.10;;;11.30;99.90;;;;;;21069304;28;20466;-69
2023/01/13 01:00:24;;;;;;;0.20;0.07;;;11.30;99.90;;;;;;21069105;28;20396;-69
2023/01/13 01:10:28;;;;;;;0.20;0.10;;;11.40;99.90;;;;;;21073538;27;20493;-68
2023/01/13 01:20:33;;;;;;;0.20;0.10;;;11.30;99.90;;;;;;21065889;28;20797;-69
2023/01/13 01:30:39;;;;;;;0.20;0.10;;;11.50;99.90;;;;;;21067092;28;20400;-69
2023/01/13 01:40:44;;;;;;;0.20;0.10;;;11.60;99.90;;;;;;21124544;28;20383;-69
2023/01/13 01:50:48;;;;;;;0.20;0.10;;;11.50;99.90;;;;;;21146582;28;20943;-69
2023/01/13 02:00:53;;;;;;;0.20;0.10;;;11.60;99.90;;;;;;21147291;28;20391;-69
2023/01/13 02:10:57;;;;;;;0.20;0.10;;;11.80;99.90;;;;;;21148245;28;20929;-69
2023/01/13 02:21:27;;;;;;;0.20;0.10;;;11.60;99.90;;;;;;21147665;28;20399;-69
2023/01/13 02:31:44;;;;;;;0.20;0.10;;;11.50;99.90;;;;;;21105842;28;20990;-70
2023/01/13 02:52:22;;;;;;;0.20;0.10;;;11.00;99.90;;;;;;21062589;28;20411;-70
2023/01/13 03:02:26;;;;;;;0.20;0.10;;;10.90;99.90;;;;;;21060835;28;20396;-70
2023/01/13 03:12:41;;;;;;;0.20;0.10;;;10.80;99.90;;;;;;21067182;28;20495;-69
2023/01/13 03:22:52;;;;;;;0.20;0.10;;;10.50;99.90;;;;;;21059487;28;20401;-69
2023/01/13 03:33:01;;;;;;;0.20;0.10;;;10.10;99.90;;;;;;21076004;28;20481;-68
2023/01/13 03:53:37;;;;;;;0.20;0.10;;;9.40;99.90;;;;;;21075014;28;20482;-69
2023/01/13 04:03:45;;;;;;;0.20;0.10;;;9.10;99.90;;;;;;21074156;28;20408;-69
2023/01/13 04:13:52;;;;;;;0.20;0.10;;;9.00;99.90;;;;;;21073343;28;20404;-69
2023/01/13 04:23:56;;;;;;;0.20;0.10;;;8.80;99.90;;;;;;21070233;28;20404;-68
2023/01/13 04:34:01;;;;;;;0.20;0.10;;;9.20;99.90;;;;;;21071353;28;20410;-68
2023/01/13 04:44:05;;;;;;;0.20;0.10;;;9.10;99.90;;;;;;21070885;28;20452;-69
2023/01/13 04:54:11;;;;;;;0.20;0.10;;;9.20;99.90;;;;;;21116462;27;20416;-68
2023/01/13 05:04:15;;;;;;;0.20;0.10;;;9.60;99.90;;;;;;21069743;28;20400;-71
2023/01/13 05:35:05;;;;;;;0.20;0.10;;;9.60;99.90;;;;;;21092837;28;20425;-69
2023/01/13 05:45:10;;;;;;;0.20;0.10;;;9.80;99.90;;;;;;21147950;28;20512;-72
2023/01/13 05:55:16;;;;;;;0.20;0.07;;;9.60;99.90;;;;;;21147459;28;20491;-68
2023/01/13 06:05:19;;;;;;;0.20;0.10;;;10.00;99.90;;;;;;21146375;28;20921;-70
2023/01/13 06:15:25;;;;;;;0.20;0.10;;;10.10;99.90;;;;;;21148044;28;20497;-69
2023/01/13 06:25:38;;;;;;;0.20;0.10;;;10.00;99.90;;;;;;21145822;28;20403;-69
2023/01/13 06:35:46;;;;;;;0.20;0.10;;;10.20;99.90;;;;;;21145037;28;20421;-69
2023/01/13 06:45:51;;;;;;;0.20;0.10;;;10.60;99.90;;;;;;21143910;28;21260;-67
2023/01/13 06:55:57;;;;;;;0.20;0.10;;;10.50;99.90;;;;;;21141611;28;20426;-70
2023/01/13 07:06:01;;;;;;;0.20;0.10;;;10.40;99.90;;;;;;21139782;28;20390;-69
2023/01/13 07:16:08;;;;;;;0.20;0.10;;;10.70;99.90;;;;;;21143948;28;20408;-69
2023/01/13 07:26:13;;;;;;;0.20;0.10;;;10.60;99.90;;;;;;21143861;28;20734;-71
2023/01/13 07:36:18;;;;;;;0.20;0.10;;;10.70;99.90;;;;;;21142787;28;20479;-66
2023/01/13 07:46:22;;;;;;;0.20;0.10;;;10.60;99.90;;;;;;21122451;28;20916;-71
2023/01/13 07:56:28;;;;;;;0.20;0.10;;;10.50;99.90;;;;;;21141777;28;20417;-70
2023/01/13 08:06:31;;;;;;;0.20;0.10;;;10.80;99.90;;;;;;21156305;28;20988;-70
2023/01/13 08:16:37;;;;;;;0.20;0.10;;;11.10;99.90;;;;;;21154674;28;20413;-69
2023/01/13 08:26:40;;;;;;;0.20;0.10;;;11.20;99.90;;;;;;21154336;28;20406;-71
2023/01/13 08:36:45;;;;;;;0.20;0.10;;;11.30;99.90;;;;;;21152203;28;20460;-70
2023/01/13 08:46:50;;;;;;;0.20;0.10;;;11.40;99.90;;;;;;21153016;28;20792;-69
2023/01/13 08:56:55;;;;;;;0.20;0.10;;;11.30;99.90;;;;;;21152360;28;20483;-68
2023/01/13 09:07:01;;;;;;;0.20;0.10;;;11.30;99.90;;;;;;21150357;28;20407;-70
2023/01/13 09:17:07;;;;;;;0.20;0.10;;;11.60;99.90;;;;;;21149336;28;20974;-69
2023/01/13 09:27:11;;;;;;;0.20;0.10;;;12.20;99.90;;;;;;21147966;28;20403;-71
2023/01/13 09:37:16;;;;;;;0.20;0.10;;;11.60;99.90;;;;;;21148199;28;20410;-71
2023/01/13 09:47:24;;;;;;;0.20;0.10;;;11.80;99.90;;;;;;21123647;28;20963;-70
2023/01/13 09:57:35;;;;;;;0.20;0.10;;;13.00;99.90;;;;;;21145835;28;20411;-71
2023/01/13 10:07:44;;;;;;;0.20;0.10;;;14.00;99.90;;;;;;21145383;28;20429;-71
2023/01/13 10:17:55;;;;;;;0.20;0.10;;;14.50;99.90;;;;;;21144201;28;20435;-70
2023/01/13 10:28:08;;;;;;;0.20;0.10;;;15.00;99.90;;;;;;21142119;28;20793;-71
2023/01/13 10:38:18;;;;;;;0.20;0.10;;;14.60;99.90;;;;;;21141891;28;20765;-70
2023/01/13 10:48:22;;;;;;;0.20;0.10;;;15.10;99.90;;;;;;21141907;28;20394;-66
2023/01/13 10:58:28;;;;;;;0.20;0.10;;;16.20;99.90;;;;;;21143291;28;20913;-71
2023/01/13 11:08:43;;;;;;;0.20;0.03;;;17.00;99.90;;;;;;21141498;28;20401;-72
2023/01/13 11:19:10;;;;;;;0.20;0.10;;;17.40;99.90;;;;;;21125033;28;20406;-71
2023/01/13 11:29:24;;;;;;;0.20;0.10;;;16.80;99.90;;;;;;21143059;28;20420;-71
2023/01/13 11:39:39;;;;;;;0.20;0.10;;;16.90;99.90;;;;;;21156305;28;20429;-71
2023/01/13 11:49:47;;;;;;;0.20;0.10;;;17.10;99.90;;;;;;21156600;28;20398;-74
2023/01/13 12:00:10;;;;;;;0.20;0.10;;;16.40;99.90;;;;;;21155992;28;20444;-71
2023/01/13 12:10:28;;;;;;;0.20;0.10;;;17.40;99.90;;;;;;21153765;28;20391;-71
2023/01/13 12:20:42;;;;;;;0.20;0.10;;;18.30;99.90;;;;;;21153946;28;20413;-71
2023/01/13 12:30:50;;;;;;;0.20;0.10;;;19.60;99.90;;;;;;21151708;27;20407;-70
2023/01/13 12:41:06;;;;;;;0.20;0.00;;;19.90;99.90;;;;;;21149604;28;20395;-71
2023/01/13 12:51:22;;;;;;;0.20;0.00;;;20.10;99.90;;;;;;21144767;28;20411;-71
2023/01/13 13:01:35;;;;;;;0.20;0.00;;;20.00;99.90;;;;;;21147020;28;20457;-71
2023/01/13 13:22:38;;;;;;;0.20;0.00;;;19.80;99.90;;;;;;21147708;27;20390;-70
2023/01/13 13:33:00;;;;;;;0.20;0.10;;;20.00;99.90;;;;;;21129742;28;20906;-69
2023/01/13 13:53:36;;;;;;;0.20;0.10;;;20.10;99.90;;;;;;21145581;28;20491;-70
2023/01/13 14:03:42;;;;;;;0.20;0.00;;;20.10;99.90;;;;;;21145132;28;20905;-70
2023/01/13 14:13:45;;;;;;;0.20;0.08;;;20.50;99.90;;;;;;21145284;28;20403;-69
2023/01/13 14:23:54;;;;;;;0.20;0.00;;;21.20;99.90;;;;;;21144839;28;20402;-70
2023/01/13 14:34:01;;;;;;;0.20;0.00;;;21.30;99.90;;;;;;21145296;28;20493;-71
2023/01/13 14:44:30;;;;;;;0.20;0.10;;;21.80;99.90;;;;;;21091960;28;21342;-70
2023/01/13 14:54:46;;;;;;;0.20;0.03;;;21.90;99.90;;;;;;21058352;28;20453;-70
2023/01/13 15:04:53;;;;;;;0.20;0.00;;;19.70;99.90;;;;;;21057607;28;20414;-71
2023/01/13 15:14:57;;;;;;;0.20;0.00;;;19.10;99.90;;;;;;21072556;28;20413;-69
2023/01/13 15:25:02;;;;;;;0.20;0.10;;;19.10;99.90;;;;;;21084241;28;20755;-70
2023/01/13 15:35:07;;;;;;;0.20;0.00;;;19.90;99.90;;;;;;21069901;28;20457;-71
2023/01/13 15:55:38;;;;;;;0.20;0.08;;;17.80;99.90;;;;;;21045728;28;20495;-71
2023/01/13 16:05:44;;;;;;;0.20;0.10;;;18.00;99.90;;;;;;21058967;28;20404;-69
2023/01/13 16:15:50;;;;;;;0.20;0.00;;;17.80;99.90;;;;;;21066366;28;20415;-70
2023/01/13 16:25:55;;;;;;;0.20;0.10;;;15.90;99.90;;;;;;21064027;28;20729;-69
2023/01/13 16:35:59;;;;;;;0.20;0.10;;;15.20;99.90;;;;;;21066790;28;20771;-69
2023/01/13 16:46:22;;;;;;;0.20;0.10;;;13.80;99.90;;;;;;21066188;28;20480;-71
2023/01/13 16:56:28;;;;;;;0.20;0.10;;;13.30;99.90;;;;;;21066766;28;20427;-70
2023/01/13 17:06:37;;;;;;;0.20;0.10;;;12.70;99.90;;;;;;21063907;28;20471;-71
2023/01/13 17:16:41;;;;;;;0.20;0.05;;;12.20;99.90;;;;;;21084337;28;20481;-71
2023/01/13 17:26:48;;;;;;;0.20;0.10;;;11.50;99.90;;;;;;21142338;28;20987;-71
2023/01/13 17:36:52;;;;;;;0.20;0.00;;;11.00;99.90;;;;;;21143016;28;20417;-72
2023/01/13 17:46:57;;;;;;;0.20;0.10;;;11.40;99.90;;;;;;21068172;28;20400;-71
2023/01/13 17:57:00;;;;;;;0.20;0.10;;;11.10;99.90;;;;;;21055850;28;20423;-70
2023/01/13 18:07:06;;;;;;;0.20;0.10;;;11.00;99.90;;;;;;21055669;28;20408;-72
2023/01/13 18:17:10;;;;;;;0.20;0.10;;;10.30;99.90;;;;;;21052599;28;20412;-70
2023/01/13 18:27:21;;;;;;;0.20;0.10;;;10.30;99.90;;;;;;21057420;28;20500;-70
2023/01/13 18:37:25;;;;;;;0.20;0.10;;;9.90;99.90;;;;;;21107262;28;20414;-64
2023/01/13 18:47:32;;;;;;;0.20;0.10;;;10.00;99.90;;;;;;21137229;28;20467;-70
2023/01/13 18:57:38;;;;;;;0.20;0.10;;;10.10;99.90;;;;;;21136594;28;20429;-70
2023/01/13 19:07:49;;;;;;;0.20;0.10;;;9.60;99.90;;;;;;21117776;28;20486;-72
2023/01/13 19:17:53;;;;;;;0.20;0.10;;;9.60;99.90;;;;;;21136391;28;20406;-71
2023/01/13 19:27:59;;;;;;;0.20;0.10;;;9.50;99.90;;;;;;21134472;28;20394;-70
2023/01/13 19:38:02;;;;;;;0.20;0.10;;;9.00;99.90;;;;;;21135475;28;20467;-70
2023/01/13 19:48:08;;;;;;;0.20;0.10;;;8.80;99.90;;;;;;21135718;28;20758;-69
2023/01/13 19:58:12;;;;;;;0.20;0.10;;;8.90;99.90;;;;;;21116469;28;20419;-68
2023/01/13 20:08:19;;;;;;;0.20;0.10;;;8.70;99.90;;;;;;21066485;28;20856;-70
2023/01/13 20:18:23;;;;;;;0.20;0.10;;;8.60;99.90;;;;;;21048975;28;20532;-69
2023/01/13 20:28:28;;;;;;;0.20;0.10;;;8.90;99.90;;;;;;21067432;28;20396;-72
2023/01/13 20:38:36;;;;;;;0.20;0.10;;;8.80;99.90;;;;;;21121925;28;20467;-72
2023/01/13 20:48:41;;;;;;;0.20;0.10;;;8.70;99.90;;;;;;21146194;28;20410;-71
2023/01/13 20:58:46;;;;;;;0.20;0.10;;;8.40;99.90;;;;;;21146612;28;20407;-71
2023/01/13 21:08:53;;;;;;;0.20;0.10;;;8.40;99.90;;;;;;21141679;28;20417;-73
2023/01/13 21:19:09;;;;;;;0.20;0.10;;;8.70;99.90;;;;;;21146751;28;20792;-72
2023/01/13 21:29:14;;;;;;;0.20;0.10;;;8.50;99.90;;;;;;21145416;28;20425;-72
2023/01/13 21:39:18;;;;;;;0.20;0.10;;;8.20;99.90;;;;;;21128918;27;20440;-72
2023/01/13 21:49:24;;;;;;;0.20;0.10;;;8.70;99.90;;;;;;21104051;27;20408;-71
2023/01/13 21:59:27;;;;;;;0.20;0.10;;;8.50;99.90;;;;;;21059292;28;20416;-70
2023/01/13 22:09:32;;;;;;;0.20;0.10;;;8.40;99.90;;;;;;21055183;28;20502;-71
2023/01/13 22:19:40;;;;;;;0.20;0.10;;;8.20;99.90;;;;;;21037215;28;20959;-69
2023/01/13 22:29:46;;;;;;;0.20;0.10;;;8.40;99.90;;;;;;21037999;28;20396;-72
2023/01/13 22:39:49;;;;;;;0.20;0.10;;;8.20;99.90;;;;;;21123228;28;20422;-73
2023/01/13 22:49:55;;;;;;;0.20;0.10;;;8.10;99.90;;;;;;21138199;28;20395;-72
2023/01/13 22:59:58;;;;;;;0.20;0.10;;;8.50;99.90;;;;;;21139531;28;20473;-72
2023/01/13 23:10:04;;;;;;;0.20;0.10;;;8.90;99.90;;;;;;21138855;28;20452;-72
2023/01/13 23:20:09;;;;;;;0.20;0.10;;;8.90;99.90;;;;;;21138114;28;20417;-72
2023/01/13 23:30:16;;;;;;;0.20;0.10;;;8.60;99.90;;;;;;21147001;28;20950;-72
2023/01/13 23:40:20;;;;;;;0.20;0.10;;;8.50;99.90;;;;;;21079130;28;20407;-72
2023/01/13 23:50:25;;;;;;;0.20;0.10;;;8.50;99.90;;;;;;21069421;28;20400;-72
